createdAt,value
2023-05-17T00:00:21.969Z,3.33
2023-05-17T00:02:49.750Z,3.50
2023-05-17T00:05:17.541Z,3.23
2023-05-17T00:07:47.164Z,3.80
2023-05-17T00:10:14.955Z,3.60
2023-05-17T00:12:42.756Z,4.00
2023-05-17T00:15:11.314Z,4.20
2023-05-17T00:17:40.549Z,3.83
2023-05-17T00:20:09.208Z,3.80
2023-05-17T00:22:37.101Z,3.90
2023-05-17T00:25:05.467Z,4.03
2023-05-17T00:27:33.322Z,3.63
2023-05-17T00:30:01.112Z,3.57
2023-05-17T00:32:28.909Z,3.30
2023-05-17T00:34:58.077Z,3.90
2023-05-17T00:37:26.005Z,3.70
2023-05-17T00:39:54.153Z,3.70
2023-05-17T00:42:21.970Z,4.20
2023-05-17T00:44:49.773Z,3.70
2023-05-17T00:47:17.681Z,3.57
2023-05-17T00:49:46.062Z,4.90
2023-05-17T00:52:15.511Z,3.90
2023-05-17T00:54:43.546Z,3.90
2023-05-17T00:57:11.444Z,3.73
2023-05-17T00:59:40.185Z,3.47
2023-05-17T01:02:08.738Z,4.10
2023-05-17T01:04:37.148Z,3.03
2023-05-17T01:07:05.565Z,4.10
2023-05-17T01:09:34.868Z,4.47
2023-05-17T01:12:09.335Z,3.83
2023-05-17T01:14:48.302Z,2.97
2023-05-17T01:17:21.867Z,3.33
2023-05-17T01:20:00.826Z,4.27
2023-05-17T01:22:37.291Z,3.43
2023-05-17T01:25:29.851Z,4.27
2023-05-17T01:28:02.288Z,3.83
2023-05-17T01:30:30.990Z,3.60
2023-05-17T01:33:00.044Z,4.20
2023-05-17T01:35:28.196Z,4.20
2023-05-17T01:37:56.165Z,5.00
2023-05-17T01:40:24.864Z,3.90
2023-05-17T01:42:58.747Z,3.70
2023-05-17T01:45:32.779Z,4.10
2023-05-17T01:48:14.976Z,3.50
2023-05-17T01:50:44.231Z,3.70
2023-05-17T01:53:19.115Z,4.00
2023-05-17T01:55:51.989Z,4.40
2023-05-17T01:58:22.906Z,4.20
2023-05-17T02:00:55.464Z,4.07
2023-05-17T02:03:23.678Z,3.37
2023-05-17T02:05:51.494Z,3.17
2023-05-17T02:08:19.302Z,3.90
2023-05-17T02:10:47.090Z,3.27
2023-05-17T02:13:14.810Z,3.97
2023-05-17T02:15:42.602Z,4.00
2023-05-17T02:18:12.930Z,3.70
2023-05-17T02:20:41.286Z,4.73
2023-05-17T02:23:09.071Z,3.50
2023-05-17T02:25:36.853Z,4.40
2023-05-17T02:28:04.760Z,4.73
2023-05-17T02:30:32.479Z,4.73
2023-05-17T02:33:00.479Z,4.50
2023-05-17T02:35:30.028Z,4.23
2023-05-17T02:37:58.038Z,4.27
2023-05-17T02:40:25.825Z,4.10
2023-05-17T02:42:53.649Z,4.03
2023-05-17T02:45:21.382Z,3.70
2023-05-17T02:47:49.203Z,4.30
2023-05-17T02:50:16.990Z,3.90
2023-05-17T02:52:46.073Z,3.90
2023-05-17T02:55:13.866Z,3.90
2023-05-17T02:57:41.610Z,5.20
2023-05-17T03:00:10.261Z,4.10
2023-05-17T03:02:38.140Z,4.23
2023-05-17T03:05:06.663Z,5.43
2023-05-17T03:07:34.615Z,4.07
2023-05-17T03:10:03.891Z,4.30
2023-05-17T03:12:31.674Z,4.40
2023-05-17T03:14:59.502Z,5.00
2023-05-17T03:17:27.364Z,4.80
2023-05-17T03:19:55.680Z,3.13
2023-05-17T03:22:23.566Z,4.50
2023-05-17T03:24:51.296Z,4.23
2023-05-17T03:27:20.396Z,4.53
2023-05-17T03:29:48.193Z,6.10
2023-05-17T03:32:15.966Z,5.20
2023-05-17T03:34:43.738Z,4.23
2023-05-17T03:37:11.462Z,4.57
2023-05-17T03:39:39.272Z,4.80
2023-05-17T03:42:07.459Z,5.03
2023-05-17T03:44:36.626Z,4.47
2023-05-17T03:47:10.897Z,4.70
2023-05-17T03:49:38.651Z,4.93
2023-05-17T03:52:06.679Z,3.87
2023-05-17T03:54:34.448Z,4.53
2023-05-17T03:57:03.635Z,4.03
2023-05-17T03:59:31.401Z,5.23
2023-05-17T04:02:00.493Z,4.30
2023-05-17T04:04:28.392Z,3.60
2023-05-17T04:06:56.217Z,4.30
2023-05-17T04:09:24.111Z,4.50
2023-05-17T04:11:51.993Z,4.60
2023-05-17T04:14:19.875Z,4.93
2023-05-17T04:16:47.641Z,4.70
2023-05-17T04:19:16.795Z,5.03
2023-05-17T04:21:45.895Z,4.47
2023-05-17T04:24:13.660Z,5.50
2023-05-17T04:26:41.741Z,3.90
2023-05-17T04:29:09.482Z,5.10
2023-05-17T04:31:37.225Z,4.83
2023-05-17T04:34:05.030Z,4.27
2023-05-17T04:36:34.122Z,4.07
2023-05-17T04:39:03.492Z,5.30
2023-05-17T04:41:31.317Z,4.50
2023-05-17T04:43:59.155Z,4.60
2023-05-17T04:46:26.941Z,4.93
2023-05-17T04:48:56.305Z,4.27
2023-05-17T04:51:24.276Z,4.97
2023-05-17T04:53:53.431Z,4.60
2023-05-17T04:56:21.172Z,4.13
2023-05-17T04:58:49.990Z,4.17
2023-05-17T05:01:19.350Z,4.70
2023-05-17T05:03:47.206Z,4.60
2023-05-17T05:06:16.249Z,5.20
2023-05-17T05:08:44.056Z,3.63
2023-05-17T05:11:13.196Z,4.77
2023-05-17T05:13:42.299Z,5.30
2023-05-17T05:16:10.123Z,4.33
2023-05-17T05:18:38.084Z,4.50
2023-05-17T05:21:06.125Z,5.37
2023-05-17T05:23:33.896Z,4.17
2023-05-17T05:26:01.672Z,4.70
2023-05-17T05:28:30.991Z,3.93
2023-05-17T05:31:00.360Z,6.00
2023-05-17T05:33:28.329Z,5.03
2023-05-17T05:35:56.227Z,5.50
2023-05-17T05:38:23.959Z,5.13
2023-05-17T05:40:51.839Z,4.97
2023-05-17T05:43:19.631Z,7.23
2023-05-17T05:45:49.964Z,5.40
2023-05-17T05:48:17.762Z,4.70
2023-05-17T05:50:46.551Z,3.70
2023-05-17T05:53:19.001Z,4.50
2023-05-17T05:55:47.520Z,4.47
2023-05-17T05:58:15.721Z,4.33
2023-05-17T06:00:43.544Z,4.37
2023-05-17T06:03:12.646Z,3.77
2023-05-17T06:05:40.913Z,4.07
2023-05-17T06:08:08.849Z,4.20
2023-05-17T06:10:36.655Z,4.30
2023-05-17T06:13:04.411Z,4.00
2023-05-17T06:15:32.881Z,4.37
2023-05-17T06:18:01.018Z,3.40
2023-05-17T06:20:30.526Z,3.80
2023-05-17T06:22:58.562Z,4.00
2023-05-17T06:25:26.385Z,4.50
2023-05-17T06:27:56.992Z,4.73
2023-05-17T06:30:24.752Z,3.60
2023-05-17T06:32:52.762Z,4.60
2023-05-17T06:35:20.673Z,3.03
2023-05-17T06:37:49.834Z,4.20
2023-05-17T06:40:18.009Z,3.23
2023-05-17T06:42:45.796Z,3.80
2023-05-17T06:45:13.686Z,3.50
2023-05-17T06:47:42.678Z,2.70
2023-05-17T06:50:10.917Z,3.50
2023-05-17T06:52:38.714Z,2.60
2023-05-17T06:55:12.052Z,2.90
2023-05-17T06:57:39.845Z,3.17
2023-05-17T07:00:11.170Z,3.90
2023-05-17T07:02:39.336Z,3.30
2023-05-17T07:05:08.151Z,3.30
2023-05-17T07:07:36.124Z,3.30
2023-05-17T07:10:04.217Z,3.30
2023-05-17T07:12:33.917Z,3.80
2023-05-17T07:15:01.721Z,4.60
2023-05-17T07:17:30.247Z,3.97
2023-05-17T07:19:58.257Z,3.57
2023-05-17T07:22:26.356Z,3.33
2023-05-17T07:24:54.186Z,3.58
2023-05-17T07:27:22.146Z,3.80
2023-05-17T07:29:51.289Z,5.03
2023-05-17T07:32:19.150Z,4.03
2023-05-17T07:34:47.114Z,3.70
2023-05-17T07:37:15.060Z,2.77
2023-05-17T07:39:43.010Z,3.60
2023-05-17T07:42:10.828Z,3.63
2023-05-17T07:44:38.631Z,3.40
2023-05-17T07:47:08.131Z,2.83
2023-05-17T07:49:35.887Z,3.00
2023-05-17T07:52:03.871Z,3.80
2023-05-17T07:54:32.320Z,2.90
2023-05-17T07:57:00.296Z,3.73
2023-05-17T07:59:30.448Z,3.13
2023-05-17T08:02:01.081Z,2.70
2023-05-17T08:04:30.203Z,2.50
2023-05-17T08:06:58.028Z,3.23
2023-05-17T08:09:25.856Z,3.27
2023-05-17T08:11:53.721Z,2.53
2023-05-17T08:14:24.233Z,2.80
2023-05-17T08:16:52.287Z,2.70
2023-05-17T08:19:20.387Z,2.40
2023-05-17T08:21:49.725Z,2.87
2023-05-17T08:24:17.808Z,2.63
2023-05-17T08:26:45.603Z,3.10
2023-05-17T08:29:13.381Z,2.83
2023-05-17T08:31:41.256Z,3.03
2023-05-17T08:34:09.256Z,2.57
2023-05-17T08:36:37.823Z,2.83
2023-05-17T08:39:08.438Z,3.03
2023-05-17T08:41:39.509Z,2.70
2023-05-17T08:44:07.498Z,3.60
2023-05-17T08:46:36.844Z,3.10
2023-05-17T08:49:08.173Z,3.27
2023-05-17T08:51:37.288Z,2.40
2023-05-17T08:54:08.406Z,2.90
2023-05-17T08:56:39.825Z,2.00
2023-05-17T08:59:09.500Z,2.50
2023-05-17T09:01:38.732Z,2.53
2023-05-17T09:04:09.682Z,2.20
2023-05-17T09:06:38.178Z,2.53
2023-05-17T09:09:08.360Z,2.67
2023-05-17T09:11:36.331Z,2.23
2023-05-17T09:14:05.437Z,2.40
2023-05-17T09:16:35.080Z,2.37
2023-05-17T09:19:04.748Z,2.10
2023-05-17T09:21:34.022Z,2.30
2023-05-17T09:24:07.224Z,1.93
2023-05-17T09:26:42.026Z,2.07
2023-05-17T09:29:11.395Z,1.70
2023-05-17T09:31:40.106Z,2.80
2023-05-17T09:34:08.733Z,3.63
2023-05-17T09:36:37.730Z,2.80
2023-05-17T09:39:07.883Z,2.10
2023-05-17T09:41:45.257Z,1.90
2023-05-17T09:44:14.524Z,2.37
2023-05-17T09:46:45.208Z,2.33
2023-05-17T09:49:14.076Z,3.90
2023-05-17T09:51:43.162Z,2.60
2023-05-17T09:54:11.464Z,2.70
2023-05-17T09:56:39.765Z,2.13
2023-05-17T09:59:14.352Z,2.40
2023-05-17T10:01:43.303Z,2.20
2023-05-17T10:04:11.966Z,2.60
2023-05-17T10:09:15.602Z,1.80
2023-05-17T10:11:47.214Z,2.00
2023-05-17T10:14:22.742Z,2.73
2023-05-17T10:16:52.259Z,2.87
2023-05-17T10:19:21.846Z,2.83
2023-05-17T10:21:51.912Z,2.30
2023-05-17T10:24:21.545Z,3.30
2023-05-17T10:26:51.198Z,4.40
2023-05-17T10:29:21.487Z,3.00
2023-05-17T10:31:51.873Z,2.50
2023-05-17T10:34:20.881Z,2.90
2023-05-17T10:36:50.857Z,3.30
2023-05-17T10:39:18.896Z,2.60
2023-05-17T10:41:50.714Z,2.80
2023-05-17T10:44:21.893Z,2.87
2023-05-17T10:46:54.814Z,2.93
2023-05-17T10:49:27.084Z,3.37
2023-05-17T10:51:55.488Z,3.43
2023-05-17T10:54:35.676Z,3.97
2023-05-17T10:57:09.144Z,3.27
2023-05-17T10:59:58.772Z,2.80
2023-05-17T11:02:27.418Z,2.63
2023-05-17T11:04:57.759Z,2.73
2023-05-17T11:07:32.279Z,2.70
2023-05-17T11:10:12.608Z,2.47
2023-05-17T11:12:42.998Z,2.97
2023-05-17T11:15:13.600Z,2.20
2023-05-17T11:17:53.973Z,2.50
2023-05-17T11:20:34.185Z,2.63
2023-05-17T11:23:04.722Z,4.23
2023-05-17T11:25:35.679Z,2.93
2023-05-17T11:28:09.961Z,2.33
2023-05-17T11:30:51.128Z,2.00
2023-05-17T11:33:29.841Z,2.60
2023-05-17T11:36:06.153Z,2.30
2023-05-17T11:38:34.455Z,2.20
2023-05-17T11:43:50.102Z,2.27
2023-05-17T11:46:24.151Z,2.33
2023-05-17T11:48:53.630Z,2.30
2023-05-17T11:51:24.702Z,3.50
2023-05-17T11:53:55.929Z,2.97
2023-05-17T11:56:35.597Z,2.27
2023-05-17T11:59:10.635Z,2.30
2023-05-17T12:01:46.951Z,3.20
2023-05-17T12:04:15.328Z,2.93
2023-05-17T12:06:44.984Z,3.10
2023-05-17T12:09:17.778Z,2.70
2023-05-17T12:11:46.300Z,2.50
2023-05-17T12:14:17.459Z,3.20
2023-05-17T12:16:49.588Z,3.73
2023-05-17T12:19:21.318Z,4.13
2023-05-17T12:21:49.492Z,2.90
2023-05-17T12:24:18.096Z,2.30
2023-05-17T12:26:47.243Z,2.60
2023-05-17T12:29:17.677Z,2.60
2023-05-17T12:31:49.494Z,2.53
2023-05-17T12:34:18.466Z,2.63
2023-05-17T12:36:46.950Z,3.47
2023-05-17T12:39:18.008Z,2.77
2023-05-17T12:41:45.869Z,3.00
2023-05-17T12:44:16.413Z,3.07
2023-05-17T12:46:50.430Z,2.47
2023-05-17T12:49:18.268Z,2.97
2023-05-17T12:51:47.387Z,2.17
2023-05-17T12:54:17.079Z,2.40
2023-05-17T12:56:46.397Z,1.90
2023-05-17T12:59:16.745Z,2.20
2023-05-17T13:01:47.690Z,2.70
2023-05-17T13:04:17.249Z,2.30
2023-05-17T13:06:46.725Z,2.40
2023-05-17T13:09:15.431Z,2.47
2023-05-17T13:11:43.660Z,2.50
2023-05-17T13:14:13.607Z,2.40
2023-05-17T13:16:42.796Z,3.00
2023-05-17T13:19:15.767Z,2.70
2023-05-17T13:21:44.792Z,2.30
2023-05-17T13:24:12.550Z,2.47
2023-05-17T13:26:40.688Z,2.00
2023-05-17T13:29:08.486Z,2.70
2023-05-17T13:31:36.307Z,2.60
2023-05-17T13:34:04.294Z,3.00
2023-05-17T13:36:35.620Z,2.70
2023-05-17T13:39:04.573Z,2.40
2023-05-17T13:41:32.363Z,3.37
2023-05-17T13:44:00.146Z,2.57
2023-05-17T13:46:27.958Z,2.47
2023-05-17T13:48:56.276Z,2.40
2023-05-17T13:51:25.455Z,2.50
2023-05-17T13:53:54.709Z,2.67
2023-05-17T13:56:22.781Z,2.70
2023-05-17T13:58:50.681Z,2.93
2023-05-17T14:01:18.814Z,3.33
2023-05-17T14:03:46.724Z,2.57
2023-05-17T14:06:14.546Z,3.30
2023-05-17T14:08:42.471Z,2.13
2023-05-17T14:11:11.778Z,2.63
2023-05-17T14:13:40.430Z,3.07
2023-05-17T14:16:08.374Z,2.90
2023-05-17T14:18:36.358Z,2.50
2023-05-17T14:21:04.358Z,2.57
2023-05-17T14:23:32.214Z,2.67
2023-05-17T14:26:00.048Z,2.07
2023-05-17T14:28:29.218Z,2.70
2023-05-17T14:30:57.198Z,3.20
2023-05-17T14:33:28.202Z,3.17
2023-05-17T14:35:56.782Z,2.10
2023-05-17T14:38:24.645Z,2.03
2023-05-17T14:40:53.808Z,2.10
2023-05-17T14:43:21.908Z,2.40
2023-05-17T14:45:51.197Z,2.30
2023-05-17T14:48:19.095Z,2.30
2023-05-17T14:50:46.888Z,2.13
2023-05-17T14:53:14.682Z,2.60
2023-05-17T14:55:42.465Z,1.83
2023-05-17T14:58:12.995Z,2.60
2023-05-17T15:00:41.837Z,2.27
2023-05-17T15:03:11.686Z,1.77
2023-05-17T15:05:40.213Z,2.90
2023-05-17T15:08:08.359Z,2.37
2023-05-17T15:10:36.802Z,2.63
2023-05-17T15:13:04.607Z,2.00
2023-05-17T15:15:34.154Z,2.70
2023-05-17T15:18:01.949Z,2.67
2023-05-17T15:20:31.282Z,2.17
2023-05-17T15:22:59.189Z,1.70
2023-05-17T15:25:27.276Z,3.20
2023-05-17T15:27:55.146Z,2.10
2023-05-17T15:30:26.993Z,1.40
2023-05-17T15:32:54.896Z,3.50
2023-05-17T15:35:22.957Z,2.43
2023-05-17T15:37:53.843Z,2.20
2023-05-17T15:40:22.454Z,2.67
2023-05-17T15:42:52.228Z,2.33
2023-05-17T15:45:21.223Z,2.90
2023-05-17T15:47:49.753Z,2.40
2023-05-17T15:50:18.172Z,2.13
2023-05-17T15:52:47.263Z,2.20
2023-05-17T15:55:16.590Z,2.97
2023-05-17T15:57:44.348Z,1.80
2023-05-17T16:00:13.392Z,2.10
2023-05-17T16:02:42.205Z,2.30
2023-05-17T16:05:10.622Z,6.37
2023-05-17T16:07:38.397Z,1.60
2023-05-17T16:10:09.902Z,1.73
2023-05-17T16:12:38.984Z,2.37
2023-05-17T16:15:07.720Z,1.90
2023-05-17T16:17:35.906Z,2.40
2023-05-17T16:20:04.138Z,2.50
2023-05-17T16:22:32.026Z,2.00
2023-05-17T16:24:59.800Z,1.60
2023-05-17T16:27:27.566Z,2.93
2023-05-17T16:29:56.663Z,2.40
2023-05-17T16:32:24.554Z,2.17
2023-05-17T16:34:52.348Z,2.53
2023-05-17T16:37:20.109Z,2.60
2023-05-17T16:39:47.902Z,4.10
2023-05-17T16:42:17.346Z,3.17
2023-05-17T16:44:45.086Z,2.00
2023-05-17T16:47:14.288Z,2.30
2023-05-17T16:49:42.958Z,2.33
2023-05-17T16:52:11.321Z,2.37
2023-05-17T16:54:39.204Z,2.40
2023-05-17T16:57:08.539Z,2.20
2023-05-17T16:59:36.424Z,3.07
2023-05-17T17:02:04.498Z,1.90
2023-05-17T17:04:33.673Z,1.73
2023-05-17T17:07:01.972Z,2.20
2023-05-17T17:09:29.685Z,2.13
2023-05-17T17:11:57.491Z,2.60
2023-05-17T17:14:26.037Z,3.70
2023-05-17T17:16:53.802Z,1.90
2023-05-17T17:19:21.801Z,2.47
2023-05-17T17:21:51.144Z,1.87
2023-05-17T17:24:19.352Z,1.83
2023-05-17T17:26:47.529Z,2.23
2023-05-17T17:29:15.273Z,3.93
2023-05-17T17:31:43.026Z,2.57
2023-05-17T17:34:10.795Z,2.07
2023-05-17T17:36:38.528Z,2.33
2023-05-17T17:39:07.674Z,1.80
2023-05-17T17:41:40.260Z,2.13
2023-05-17T17:44:08.077Z,2.83
2023-05-17T17:46:35.904Z,1.93
2023-05-17T17:49:03.616Z,2.20
2023-05-17T17:51:31.446Z,2.40
2023-05-17T17:53:59.230Z,2.10
2023-05-17T17:56:28.255Z,2.07
2023-05-17T17:58:56.562Z,2.00
2023-05-17T18:01:25.569Z,2.20
2023-05-17T18:03:53.397Z,2.30
2023-05-17T18:06:21.287Z,2.07
2023-05-17T18:08:49.056Z,2.60
2023-05-17T18:11:16.881Z,2.20
2023-05-17T18:13:46.522Z,2.43
2023-05-17T18:16:14.438Z,2.50
2023-05-17T18:18:42.412Z,2.93
2023-05-17T18:21:11.386Z,2.20
2023-05-17T18:23:39.133Z,2.53
2023-05-17T18:26:07.425Z,2.17
2023-05-17T18:28:42.389Z,1.70
2023-05-17T18:31:14.138Z,2.43
2023-05-17T18:33:42.000Z,2.80
2023-05-17T18:36:09.905Z,2.30
2023-05-17T18:38:37.715Z,2.50
2023-05-17T18:41:05.574Z,2.87
2023-05-17T18:43:33.363Z,4.53
2023-05-17T18:46:01.322Z,2.60
2023-05-17T18:48:30.371Z,3.37
2023-05-17T18:50:59.794Z,2.20
2023-05-17T18:53:29.195Z,2.90
2023-05-17T18:56:02.474Z,2.23
2023-05-17T18:58:30.647Z,2.20
2023-05-17T19:01:00.121Z,2.30
2023-05-17T19:03:27.961Z,2.43
2023-05-17T19:05:57.025Z,1.90
2023-05-17T19:08:24.895Z,2.10
2023-05-17T19:10:52.623Z,2.50
2023-05-17T19:13:20.418Z,3.00
2023-05-17T19:15:48.414Z,2.50
2023-05-17T19:18:16.283Z,1.93
2023-05-17T19:20:44.034Z,1.70
2023-05-17T19:23:13.221Z,1.93
2023-05-17T19:25:40.944Z,2.40
2023-05-17T19:28:08.684Z,2.00
2023-05-17T19:30:36.693Z,2.90
2023-05-17T19:33:04.776Z,2.53
2023-05-17T19:35:33.630Z,2.30
2023-05-17T19:38:01.391Z,2.40
2023-05-17T19:40:31.394Z,2.10
2023-05-17T19:43:01.516Z,2.67
2023-05-17T19:45:31.619Z,2.90
2023-05-17T19:48:02.763Z,2.60
2023-05-17T19:50:31.031Z,1.93
2023-05-17T19:52:58.922Z,2.60
2023-05-17T19:55:29.864Z,2.03
2023-05-17T19:57:59.004Z,3.33
2023-05-17T20:00:26.916Z,4.10
2023-05-17T20:02:54.783Z,2.60
2023-05-17T20:05:25.239Z,2.33
2023-05-17T20:07:52.991Z,2.67
2023-05-17T20:10:21.024Z,2.50
2023-05-17T20:12:49.016Z,2.90
2023-05-17T20:15:18.115Z,3.10
2023-05-17T20:17:45.924Z,1.90
2023-05-17T20:20:13.906Z,2.70
2023-05-17T20:22:42.997Z,3.00
2023-05-17T20:25:12.256Z,2.30
2023-05-17T20:27:40.238Z,3.00
2023-05-17T20:30:09.140Z,2.47
2023-05-17T20:32:38.295Z,2.77
2023-05-17T20:35:06.864Z,3.80
2023-05-17T20:37:34.867Z,4.07
2023-05-17T20:40:04.549Z,2.30
2023-05-17T20:42:32.433Z,3.27
2023-05-17T20:45:00.784Z,3.50
2023-05-17T20:47:28.995Z,2.53
2023-05-17T20:49:59.464Z,2.27
2023-05-17T20:52:38.966Z,2.37
2023-05-17T20:55:08.600Z,2.60
2023-05-17T20:57:36.496Z,2.90
2023-05-17T21:00:06.138Z,2.50
2023-05-17T21:02:33.997Z,2.20
2023-05-17T21:05:04.729Z,2.50
2023-05-17T21:07:32.480Z,2.40
2023-05-17T21:10:00.251Z,2.60
2023-05-17T21:12:27.970Z,2.20
2023-05-17T21:15:14.593Z,3.07
2023-05-17T21:17:43.577Z,2.73
2023-05-17T21:20:13.690Z,2.67
2023-05-17T21:22:41.471Z,2.70
2023-05-17T21:25:10.859Z,2.53
2023-05-17T21:27:38.614Z,2.80
2023-05-17T21:30:07.474Z,2.60
2023-05-17T21:32:35.381Z,2.60
2023-05-17T21:35:03.134Z,2.73
2023-05-17T21:37:32.253Z,2.70
2023-05-17T21:40:00.157Z,2.73
2023-05-17T21:42:27.958Z,3.70
2023-05-17T21:44:55.741Z,3.20
2023-05-17T21:47:23.847Z,2.97
2023-05-17T21:49:51.693Z,2.40
2023-05-17T21:52:19.513Z,2.30
2023-05-17T21:54:48.947Z,2.70
2023-05-17T21:57:16.707Z,3.07
2023-05-17T21:59:44.632Z,2.70
2023-05-17T22:02:12.405Z,2.60
2023-05-17T22:04:41.018Z,2.33
2023-05-17T22:07:08.961Z,2.77
2023-05-17T22:09:36.867Z,2.10
2023-05-17T22:12:08.456Z,3.30
2023-05-17T22:14:36.569Z,2.50
2023-05-17T22:17:08.366Z,2.73
2023-05-17T22:19:40.258Z,2.60
2023-05-17T22:22:08.687Z,3.00
2023-05-17T22:24:36.722Z,3.30
2023-05-17T22:27:06.193Z,3.77
2023-05-17T22:29:34.272Z,2.93
2023-05-17T22:32:02.217Z,3.00
2023-05-17T22:34:30.111Z,4.53
2023-05-17T22:36:58.268Z,2.53
2023-05-17T22:39:26.051Z,2.70
2023-05-17T22:41:53.830Z,2.57
2023-05-17T22:44:22.961Z,2.87
2023-05-17T22:46:50.750Z,2.80
2023-05-17T22:49:20.108Z,2.43
2023-05-17T22:51:47.907Z,2.70
2023-05-17T22:54:15.759Z,3.10
2023-05-17T22:56:43.553Z,2.70
2023-05-17T22:59:11.319Z,3.13
2023-05-17T23:01:40.444Z,2.50
2023-05-17T23:04:08.233Z,2.80
2023-05-17T23:06:36.014Z,2.80
2023-05-17T23:09:05.132Z,2.23
2023-05-17T23:11:35.316Z,2.97
2023-05-17T23:14:03.116Z,3.10
2023-05-17T23:16:30.995Z,4.90
2023-05-17T23:19:00.156Z,2.37
2023-05-17T23:21:28.013Z,2.73
2023-05-17T23:23:56.286Z,2.90
2023-05-17T23:26:24.020Z,3.07
2023-05-17T23:28:53.520Z,2.60
2023-05-17T23:31:21.711Z,2.60
2023-05-17T23:33:49.544Z,2.63
2023-05-17T23:36:20.653Z,2.63
2023-05-17T23:38:48.400Z,3.03
2023-05-17T23:41:18.168Z,4.30
2023-05-17T23:43:46.792Z,3.53
2023-05-17T23:46:19.713Z,2.70
2023-05-17T23:48:50.526Z,2.57
2023-05-17T23:51:20.986Z,3.03
2023-05-17T23:53:49.784Z,2.87
2023-05-17T23:56:18.034Z,2.70
2023-05-17T23:58:45.910Z,2.60
